sensor_id;sensor_type;location;lat;lon;timestamp;P1;durP1;ratioP1;P2;durP2;ratioP2
69463;SDS011;56665;41.106;16.688;2023-07-29T00:02:12;5.70;;;3.28;;
69463;SDS011;56665;41.106;16.688;2023-07-29T00:05:16;14.77;;;5.97;;
69463;SDS011;56665;41.106;16.688;2023-07-29T00:08:22;16.85;;;6.45;;
69463;SDS011;56665;41.106;16.688;2023-07-29T00:11:26;14.30;;;4.82;;
69463;SDS011;56665;41.106;16.688;2023-07-29T00:14:29;6.47;;;3.30;;
69463;SDS011;56665;41.106;16.688;2023-07-29T00:17:33;6.45;;;2.88;;
69463;SDS011;56665;41.106;16.688;2023-07-29T00:20:36;7.40;;;2.97;;
69463;SDS011;56665;41.106;16.688;2023-07-29T00:23:40;6.45;;;2.83;;
69463;SDS011;56665;41.106;16.688;2023-07-29T00:26:44;6.35;;;2.90;;
69463;SDS011;56665;41.106;16.688;2023-07-29T00:29:51;5.10;;;2.58;;
69463;SDS011;56665;41.106;16.688;2023-07-29T00:32:54;7.53;;;3.00;;
69463;SDS011;56665;41.106;16.688;2023-07-29T00:35:58;6.47;;;3.17;;
69463;SDS011;56665;41.106;16.688;2023-07-29T00:39:05;8.45;;;3.95;;
69463;SDS011;56665;41.106;16.688;2023-07-29T00:42:09;10.68;;;3.30;;
69463;SDS011;56665;41.106;16.688;2023-07-29T00:45:14;5.72;;;3.17;;
69463;SDS011;56665;41.106;16.688;2023-07-29T00:48:17;8.65;;;3.75;;
69463;SDS011;56665;41.106;16.688;2023-07-29T00:51:21;9.15;;;3.80;;
69463;SDS011;56665;41.106;16.688;2023-07-29T00:54:27;7.38;;;3.20;;
69463;SDS011;56665;41.106;16.688;2023-07-29T00:57:31;8.27;;;3.10;;
69463;SDS011;56665;41.106;16.688;2023-07-29T01:00:35;7.05;;;2.92;;
69463;SDS011;56665;41.106;16.688;2023-07-29T01:03:41;5.15;;;2.80;;
69463;SDS011;56665;41.106;16.688;2023-07-29T01:10:01;5.75;;;2.63;;
69463;SDS011;56665;41.106;16.688;2023-07-29T01:13:12;6.25;;;3.17;;
69463;SDS011;56665;41.106;16.688;2023-07-29T01:16:21;6.53;;;3.00;;
69463;SDS011;56665;41.106;16.688;2023-07-29T01:22:56;7.65;;;3.33;;
69463;SDS011;56665;41.106;16.688;2023-07-29T01:26:00;9.52;;;3.30;;
69463;SDS011;56665;41.106;16.688;2023-07-29T01:29:05;9.02;;;3.60;;
69463;SDS011;56665;41.106;16.688;2023-07-29T01:32:19;11.63;;;6.00;;
69463;SDS011;56665;41.106;16.688;2023-07-29T01:35:31;8.07;;;4.20;;
69463;SDS011;56665;41.106;16.688;2023-07-29T01:38:37;7.75;;;3.10;;
69463;SDS011;56665;41.106;16.688;2023-07-29T01:41:44;8.85;;;3.45;;
69463;SDS011;56665;41.106;16.688;2023-07-29T01:44:48;7.55;;;3.28;;
69463;SDS011;56665;41.106;16.688;2023-07-29T01:47:53;6.00;;;2.90;;
69463;SDS011;56665;41.106;16.688;2023-07-29T01:50:58;5.45;;;2.72;;
69463;SDS011;56665;41.106;16.688;2023-07-29T01:54:03;6.13;;;2.65;;
69463;SDS011;56665;41.106;16.688;2023-07-29T01:57:07;5.78;;;2.83;;
69463;SDS011;56665;41.106;16.688;2023-07-29T02:00:11;6.43;;;2.80;;
69463;SDS011;56665;41.106;16.688;2023-07-29T02:03:18;6.95;;;2.95;;
69463;SDS011;56665;41.106;16.688;2023-07-29T02:06:24;8.68;;;3.75;;
69463;SDS011;56665;41.106;16.688;2023-07-29T02:09:28;8.68;;;3.20;;
69463;SDS011;56665;41.106;16.688;2023-07-29T02:12:32;8.15;;;3.08;;
69463;SDS011;56665;41.106;16.688;2023-07-29T02:15:36;7.88;;;2.55;;
69463;SDS011;56665;41.106;16.688;2023-07-29T02:18:40;6.57;;;2.90;;
69463;SDS011;56665;41.106;16.688;2023-07-29T02:21:44;5.40;;;2.97;;
69463;SDS011;56665;41.106;16.688;2023-07-29T02:24:47;4.72;;;2.80;;
69463;SDS011;56665;41.106;16.688;2023-07-29T02:27:51;6.25;;;3.03;;
69463;SDS011;56665;41.106;16.688;2023-07-29T02:34:21;5.32;;;3.05;;
69463;SDS011;56665;41.106;16.688;2023-07-29T02:37:26;6.00;;;3.03;;
69463;SDS011;56665;41.106;16.688;2023-07-29T02:40:30;7.53;;;2.45;;
69463;SDS011;56665;41.106;16.688;2023-07-29T02:43:35;5.20;;;2.67;;
69463;SDS011;56665;41.106;16.688;2023-07-29T02:46:39;5.13;;;2.70;;
69463;SDS011;56665;41.106;16.688;2023-07-29T02:49:43;7.13;;;2.92;;
69463;SDS011;56665;41.106;16.688;2023-07-29T02:52:48;7.03;;;2.72;;
69463;SDS011;56665;41.106;16.688;2023-07-29T02:55:51;6.50;;;2.90;;
69463;SDS011;56665;41.106;16.688;2023-07-29T02:58:58;6.78;;;2.83;;
69463;SDS011;56665;41.106;16.688;2023-07-29T03:02:01;5.30;;;2.85;;
69463;SDS011;56665;41.106;16.688;2023-07-29T03:05:05;7.65;;;2.80;;
69463;SDS011;56665;41.106;16.688;2023-07-29T03:08:09;7.18;;;3.10;;
69463;SDS011;56665;41.106;16.688;2023-07-29T03:11:14;5.82;;;2.78;;
69463;SDS011;56665;41.106;16.688;2023-07-29T03:14:18;4.53;;;2.67;;
69463;SDS011;56665;41.106;16.688;2023-07-29T03:17:22;6.15;;;2.60;;
69463;SDS011;56665;41.106;16.688;2023-07-29T03:20:26;5.15;;;2.80;;
69463;SDS011;56665;41.106;16.688;2023-07-29T03:23:29;6.28;;;2.72;;
69463;SDS011;56665;41.106;16.688;2023-07-29T03:26:34;5.72;;;2.55;;
69463;SDS011;56665;41.106;16.688;2023-07-29T03:29:38;4.53;;;2.65;;
69463;SDS011;56665;41.106;16.688;2023-07-29T03:32:43;5.68;;;2.70;;
69463;SDS011;56665;41.106;16.688;2023-07-29T03:35:51;4.50;;;2.53;;
69463;SDS011;56665;41.106;16.688;2023-07-29T03:38:55;5.30;;;2.90;;
69463;SDS011;56665;41.106;16.688;2023-07-29T03:41:58;5.88;;;2.65;;
69463;SDS011;56665;41.106;16.688;2023-07-29T03:45:02;7.13;;;3.22;;
69463;SDS011;56665;41.106;16.688;2023-07-29T03:48:07;6.95;;;3.17;;
69463;SDS011;56665;41.106;16.688;2023-07-29T03:51:11;5.18;;;2.70;;
69463;SDS011;56665;41.106;16.688;2023-07-29T03:54:14;4.82;;;3.10;;
69463;SDS011;56665;41.106;16.688;2023-07-29T03:57:18;6.32;;;2.78;;
69463;SDS011;56665;41.106;16.688;2023-07-29T04:00:22;5.70;;;3.08;;
69463;SDS011;56665;41.106;16.688;2023-07-29T04:03:26;6.68;;;3.42;;
69463;SDS011;56665;41.106;16.688;2023-07-29T04:06:31;6.22;;;3.17;;
69463;SDS011;56665;41.106;16.688;2023-07-29T04:09:37;6.03;;;3.28;;
69463;SDS011;56665;41.106;16.688;2023-07-29T04:12:40;5.80;;;3.40;;
69463;SDS011;56665;41.106;16.688;2023-07-29T04:15:44;7.28;;;4.55;;
69463;SDS011;56665;41.106;16.688;2023-07-29T04:18:48;8.05;;;4.80;;
69463;SDS011;56665;41.106;16.688;2023-07-29T04:21:52;7.97;;;5.00;;
69463;SDS011;56665;41.106;16.688;2023-07-29T04:24:56;7.88;;;5.05;;
69463;SDS011;56665;41.106;16.688;2023-07-29T04:28:01;10.30;;;4.82;;
69463;SDS011;56665;41.106;16.688;2023-07-29T04:31:06;7.75;;;4.50;;
69463;SDS011;56665;41.106;16.688;2023-07-29T04:34:10;13.32;;;4.30;;
69463;SDS011;56665;41.106;16.688;2023-07-29T04:37:13;9.52;;;5.07;;
69463;SDS011;56665;41.106;16.688;2023-07-29T04:40:19;15.32;;;8.93;;
69463;SDS011;56665;41.106;16.688;2023-07-29T04:43:23;20.02;;;13.07;;
69463;SDS011;56665;41.106;16.688;2023-07-29T04:46:35;26.38;;;15.75;;
69463;SDS011;56665;41.106;16.688;2023-07-29T04:49:39;26.88;;;16.58;;
69463;SDS011;56665;41.106;16.688;2023-07-29T04:52:43;28.65;;;16.27;;
69463;SDS011;56665;41.106;16.688;2023-07-29T04:55:47;23.88;;;14.75;;
69463;SDS011;56665;41.106;16.688;2023-07-29T04:58:50;24.20;;;12.90;;
69463;SDS011;56665;41.106;16.688;2023-07-29T05:01:54;20.77;;;11.80;;
69463;SDS011;56665;41.106;16.688;2023-07-29T05:04:59;20.50;;;10.18;;
69463;SDS011;56665;41.106;16.688;2023-07-29T05:08:02;19.58;;;9.23;;
69463;SDS011;56665;41.106;16.688;2023-07-29T05:11:07;16.80;;;9.23;;
69463;SDS011;56665;41.106;16.688;2023-07-29T05:14:12;16.15;;;7.80;;
69463;SDS011;56665;41.106;16.688;2023-07-29T05:17:16;15.27;;;6.72;;
69463;SDS011;56665;41.106;16.688;2023-07-29T05:20:20;11.25;;;5.60;;
69463;SDS011;56665;41.106;16.688;2023-07-29T05:23:24;11.70;;;5.90;;
69463;SDS011;56665;41.106;16.688;2023-07-29T05:26:28;14.23;;;5.95;;
69463;SDS011;56665;41.106;16.688;2023-07-29T05:29:33;12.93;;;5.47;;
69463;SDS011;56665;41.106;16.688;2023-07-29T05:32:36;12.35;;;5.45;;
69463;SDS011;56665;41.106;16.688;2023-07-29T05:35:40;18.48;;;5.90;;
69463;SDS011;56665;41.106;16.688;2023-07-29T05:38:44;14.70;;;4.95;;
69463;SDS011;56665;41.106;16.688;2023-07-29T05:41:48;19.23;;;4.90;;
69463;SDS011;56665;41.106;16.688;2023-07-29T05:44:51;11.35;;;4.95;;
69463;SDS011;56665;41.106;16.688;2023-07-29T05:47:57;14.85;;;5.05;;
69463;SDS011;56665;41.106;16.688;2023-07-29T05:51:00;15.80;;;5.70;;
69463;SDS011;56665;41.106;16.688;2023-07-29T05:54:04;17.13;;;5.53;;
69463;SDS011;56665;41.106;16.688;2023-07-29T05:57:09;12.25;;;4.70;;
69463;SDS011;56665;41.106;16.688;2023-07-29T06:00:15;10.55;;;4.75;;
69463;SDS011;56665;41.106;16.688;2023-07-29T06:03:19;12.25;;;4.82;;
69463;SDS011;56665;41.106;16.688;2023-07-29T06:06:23;11.95;;;4.78;;
69463;SDS011;56665;41.106;16.688;2023-07-29T06:09:27;8.18;;;3.50;;
69463;SDS011;56665;41.106;16.688;2023-07-29T06:12:31;8.27;;;3.47;;
69463;SDS011;56665;41.106;16.688;2023-07-29T06:15:35;8.38;;;3.47;;
69463;SDS011;56665;41.106;16.688;2023-07-29T06:18:39;11.70;;;3.10;;
69463;SDS011;56665;41.106;16.688;2023-07-29T06:21:42;6.15;;;3.15;;
69463;SDS011;56665;41.106;16.688;2023-07-29T06:24:46;8.93;;;3.20;;
69463;SDS011;56665;41.106;16.688;2023-07-29T06:27:51;7.15;;;3.28;;
69463;SDS011;56665;41.106;16.688;2023-07-29T06:30:55;10.98;;;3.35;;
69463;SDS011;56665;41.106;16.688;2023-07-29T06:33:59;5.65;;;2.88;;
69463;SDS011;56665;41.106;16.688;2023-07-29T06:37:04;9.73;;;3.28;;
69463;SDS011;56665;41.106;16.688;2023-07-29T06:40:07;8.25;;;3.15;;
69463;SDS011;56665;41.106;16.688;2023-07-29T06:43:13;9.07;;;2.65;;
69463;SDS011;56665;41.106;16.688;2023-07-29T06:46:18;9.82;;;3.15;;
69463;SDS011;56665;41.106;16.688;2023-07-29T06:49:22;12.32;;;4.07;;
69463;SDS011;56665;41.106;16.688;2023-07-29T06:52:27;11.40;;;3.67;;
69463;SDS011;56665;41.106;16.688;2023-07-29T06:55:31;7.28;;;3.28;;
69463;SDS011;56665;41.106;16.688;2023-07-29T06:58:36;8.88;;;3.28;;
69463;SDS011;56665;41.106;16.688;2023-07-29T07:01:40;7.80;;;3.03;;
69463;SDS011;56665;41.106;16.688;2023-07-29T07:04:44;8.15;;;3.38;;
69463;SDS011;56665;41.106;16.688;2023-07-29T07:07:48;9.57;;;3.55;;
69463;SDS011;56665;41.106;16.688;2023-07-29T07:10:52;10.05;;;3.33;;
69463;SDS011;56665;41.106;16.688;2023-07-29T07:13:55;7.57;;;3.08;;
69463;SDS011;56665;41.106;16.688;2023-07-29T07:16:59;8.27;;;3.08;;
69463;SDS011;56665;41.106;16.688;2023-07-29T07:20:04;7.93;;;3.50;;
69463;SDS011;56665;41.106;16.688;2023-07-29T07:23:09;5.93;;;3.10;;
69463;SDS011;56665;41.106;16.688;2023-07-29T07:26:15;6.72;;;3.03;;
69463;SDS011;56665;41.106;16.688;2023-07-29T07:29:19;6.50;;;3.20;;
69463;SDS011;56665;41.106;16.688;2023-07-29T07:32:23;6.15;;;2.67;;
69463;SDS011;56665;41.106;16.688;2023-07-29T07:35:27;7.30;;;2.55;;
69463;SDS011;56665;41.106;16.688;2023-07-29T07:38:30;7.50;;;2.80;;
69463;SDS011;56665;41.106;16.688;2023-07-29T07:41:35;6.45;;;2.70;;
69463;SDS011;56665;41.106;16.688;2023-07-29T07:44:39;9.02;;;3.25;;
69463;SDS011;56665;41.106;16.688;2023-07-29T07:47:43;7.50;;;2.83;;
69463;SDS011;56665;41.106;16.688;2023-07-29T07:50:46;6.15;;;3.25;;
69463;SDS011;56665;41.106;16.688;2023-07-29T07:53:50;5.70;;;3.17;;
69463;SDS011;56665;41.106;16.688;2023-07-29T07:56:54;6.28;;;4.28;;
69463;SDS011;56665;41.106;16.688;2023-07-29T07:59:58;6.57;;;3.72;;
69463;SDS011;56665;41.106;16.688;2023-07-29T08:03:02;6.60;;;3.47;;
69463;SDS011;56665;41.106;16.688;2023-07-29T08:06:05;7.85;;;3.40;;
69463;SDS011;56665;41.106;16.688;2023-07-29T08:09:09;4.87;;;3.30;;
69463;SDS011;56665;41.106;16.688;2023-07-29T08:12:12;5.60;;;3.22;;
69463;SDS011;56665;41.106;16.688;2023-07-29T08:15:16;7.57;;;3.78;;
69463;SDS011;56665;41.106;16.688;2023-07-29T08:18:20;7.47;;;4.50;;
69463;SDS011;56665;41.106;16.688;2023-07-29T08:21:24;6.50;;;3.47;;
69463;SDS011;56665;41.106;16.688;2023-07-29T08:24:29;3.70;;;2.97;;
69463;SDS011;56665;41.106;16.688;2023-07-29T08:27:33;6.60;;;3.88;;
69463;SDS011;56665;41.106;16.688;2023-07-29T08:30:37;6.68;;;3.83;;
69463;SDS011;56665;41.106;16.688;2023-07-29T08:33:41;5.68;;;3.50;;
69463;SDS011;56665;41.106;16.688;2023-07-29T08:36:45;5.78;;;3.60;;
69463;SDS011;56665;41.106;16.688;2023-07-29T08:39:49;5.10;;;3.20;;
69463;SDS011;56665;41.106;16.688;2023-07-29T08:42:52;4.95;;;3.28;;
69463;SDS011;56665;41.106;16.688;2023-07-29T08:45:59;6.13;;;3.15;;
69463;SDS011;56665;41.106;16.688;2023-07-29T08:49:03;5.40;;;3.38;;
69463;SDS011;56665;41.106;16.688;2023-07-29T08:52:07;6.07;;;3.20;;
69463;SDS011;56665;41.106;16.688;2023-07-29T08:55:12;5.33;;;3.47;;
69463;SDS011;56665;41.106;16.688;2023-07-29T08:58:16;7.50;;;3.30;;
69463;SDS011;56665;41.106;16.688;2023-07-29T09:01:19;7.03;;;3.28;;
69463;SDS011;56665;41.106;16.688;2023-07-29T09:04:23;7.78;;;2.72;;
69463;SDS011;56665;41.106;16.688;2023-07-29T09:07:28;5.47;;;3.03;;
69463;SDS011;56665;41.106;16.688;2023-07-29T09:10:36;5.03;;;3.20;;
69463;SDS011;56665;41.106;16.688;2023-07-29T09:13:43;6.95;;;3.15;;
69463;SDS011;56665;41.106;16.688;2023-07-29T09:16:46;5.95;;;2.83;;
69463;SDS011;56665;41.106;16.688;2023-07-29T09:19:50;5.35;;;2.88;;
69463;SDS011;56665;41.106;16.688;2023-07-29T09:22:55;6.35;;;3.10;;
69463;SDS011;56665;41.106;16.688;2023-07-29T09:26:03;8.13;;;3.25;;
69463;SDS011;56665;41.106;16.688;2023-07-29T09:29:07;7.00;;;2.90;;
69463;SDS011;56665;41.106;16.688;2023-07-29T09:32:17;6.65;;;2.83;;
69463;SDS011;56665;41.106;16.688;2023-07-29T09:35:22;6.47;;;2.78;;
69463;SDS011;56665;41.106;16.688;2023-07-29T09:38:26;4.57;;;2.95;;
69463;SDS011;56665;41.106;16.688;2023-07-29T09:41:31;5.97;;;3.15;;
69463;SDS011;56665;41.106;16.688;2023-07-29T09:44:38;4.72;;;2.70;;
69463;SDS011;56665;41.106;16.688;2023-07-29T09:47:41;5.43;;;3.03;;
69463;SDS011;56665;41.106;16.688;2023-07-29T09:50:50;5.78;;;2.55;;
69463;SDS011;56665;41.106;16.688;2023-07-29T09:53:54;4.50;;;2.85;;
69463;SDS011;56665;41.106;16.688;2023-07-29T09:56:58;5.90;;;2.92;;
69463;SDS011;56665;41.106;16.688;2023-07-29T10:00:02;4.97;;;2.83;;
69463;SDS011;56665;41.106;16.688;2023-07-29T10:03:09;4.68;;;2.80;;
69463;SDS011;56665;41.106;16.688;2023-07-29T10:06:13;4.90;;;2.67;;
69463;SDS011;56665;41.106;16.688;2023-07-29T10:09:17;6.93;;;3.08;;
69463;SDS011;56665;41.106;16.688;2023-07-29T10:12:23;4.22;;;2.75;;
69463;SDS011;56665;41.106;16.688;2023-07-29T10:15:29;5.72;;;2.90;;
69463;SDS011;56665;41.106;16.688;2023-07-29T10:18:33;5.93;;;3.15;;
69463;SDS011;56665;41.106;16.688;2023-07-29T10:21:38;4.68;;;2.80;;
69463;SDS011;56665;41.106;16.688;2023-07-29T10:24:43;7.93;;;2.80;;
69463;SDS011;56665;41.106;16.688;2023-07-29T10:28:04;5.50;;;3.13;;
69463;SDS011;56665;41.106;16.688;2023-07-29T10:31:08;5.32;;;2.90;;
69463;SDS011;56665;41.106;16.688;2023-07-29T10:34:13;4.70;;;2.70;;
69463;SDS011;56665;41.106;16.688;2023-07-29T10:37:17;6.15;;;3.10;;
69463;SDS011;56665;41.106;16.688;2023-07-29T10:40:22;6.60;;;3.13;;
69463;SDS011;56665;41.106;16.688;2023-07-29T10:43:38;6.53;;;2.63;;
69463;SDS011;56665;41.106;16.688;2023-07-29T10:46:41;5.80;;;2.47;;
69463;SDS011;56665;41.106;16.688;2023-07-29T10:49:47;4.35;;;2.75;;
69463;SDS011;56665;41.106;16.688;2023-07-29T10:52:53;4.82;;;2.90;;
69463;SDS011;56665;41.106;16.688;2023-07-29T10:55:56;3.92;;;2.40;;
69463;SDS011;56665;41.106;16.688;2023-07-29T11:02:19;4.93;;;2.75;;
69463;SDS011;56665;41.106;16.688;2023-07-29T11:05:23;5.75;;;3.08;;
69463;SDS011;56665;41.106;16.688;2023-07-29T11:11:32;4.68;;;3.15;;
69463;SDS011;56665;41.106;16.688;2023-07-29T11:14:37;7.75;;;2.88;;
69463;SDS011;56665;41.106;16.688;2023-07-29T11:17:56;5.00;;;2.92;;
69463;SDS011;56665;41.106;16.688;2023-07-29T11:21:02;4.57;;;3.10;;
69463;SDS011;56665;41.106;16.688;2023-07-29T11:24:08;4.88;;;2.80;;
69463;SDS011;56665;41.106;16.688;2023-07-29T11:27:12;5.22;;;3.00;;
69463;SDS011;56665;41.106;16.688;2023-07-29T11:30:16;6.70;;;2.67;;
69463;SDS011;56665;41.106;16.688;2023-07-29T11:33:20;6.72;;;3.00;;
69463;SDS011;56665;41.106;16.688;2023-07-29T11:36:26;5.05;;;2.97;;
69463;SDS011;56665;41.106;16.688;2023-07-29T11:39:32;5.32;;;2.97;;
69463;SDS011;56665;41.106;16.688;2023-07-29T11:42:36;5.45;;;3.13;;
69463;SDS011;56665;41.106;16.688;2023-07-29T11:45:40;6.53;;;2.60;;
69463;SDS011;56665;41.106;16.688;2023-07-29T11:48:44;6.50;;;2.50;;
69463;SDS011;56665;41.106;16.688;2023-07-29T11:51:48;6.10;;;2.45;;
69463;SDS011;56665;41.106;16.688;2023-07-29T11:54:52;5.43;;;2.30;;
69463;SDS011;56665;41.106;16.688;2023-07-29T11:57:56;5.15;;;2.60;;
69463;SDS011;56665;41.106;16.688;2023-07-29T12:01:01;5.35;;;2.63;;
69463;SDS011;56665;41.106;16.688;2023-07-29T12:04:04;7.63;;;3.30;;
69463;SDS011;56665;41.106;16.688;2023-07-29T12:07:08;4.95;;;2.70;;
69463;SDS011;56665;41.106;16.688;2023-07-29T12:10:12;6.18;;;2.95;;
69463;SDS011;56665;41.106;16.688;2023-07-29T12:13:17;5.78;;;2.65;;
69463;SDS011;56665;41.106;16.688;2023-07-29T12:16:21;6.10;;;3.10;;
69463;SDS011;56665;41.106;16.688;2023-07-29T12:19:30;5.03;;;2.70;;
69463;SDS011;56665;41.106;16.688;2023-07-29T12:22:44;5.38;;;3.08;;
69463;SDS011;56665;41.106;16.688;2023-07-29T12:25:48;6.60;;;3.10;;
69463;SDS011;56665;41.106;16.688;2023-07-29T12:28:52;6.25;;;2.65;;
69463;SDS011;56665;41.106;16.688;2023-07-29T12:31:59;4.75;;;2.67;;
69463;SDS011;56665;41.106;16.688;2023-07-29T12:35:09;5.25;;;2.80;;
69463;SDS011;56665;41.106;16.688;2023-07-29T12:38:20;8.18;;;2.97;;
69463;SDS011;56665;41.106;16.688;2023-07-29T12:41:24;3.78;;;2.35;;
69463;SDS011;56665;41.106;16.688;2023-07-29T12:44:32;4.25;;;2.50;;
69463;SDS011;56665;41.106;16.688;2023-07-29T12:47:37;6.10;;;2.90;;
69463;SDS011;56665;41.106;16.688;2023-07-29T12:50:41;4.30;;;3.15;;
69463;SDS011;56665;41.106;16.688;2023-07-29T12:53:45;4.35;;;2.70;;
69463;SDS011;56665;41.106;16.688;2023-07-29T12:56:49;4.57;;;2.67;;
69463;SDS011;56665;41.106;16.688;2023-07-29T12:59:53;4.68;;;2.60;;
69463;SDS011;56665;41.106;16.688;2023-07-29T13:02:57;4.45;;;2.65;;
69463;SDS011;56665;41.106;16.688;2023-07-29T13:06:01;5.70;;;2.90;;
69463;SDS011;56665;41.106;16.688;2023-07-29T13:09:04;5.32;;;3.03;;
69463;SDS011;56665;41.106;16.688;2023-07-29T13:12:09;5.28;;;3.38;;
69463;SDS011;56665;41.106;16.688;2023-07-29T13:15:13;8.38;;;3.75;;
69463;SDS011;56665;41.106;16.688;2023-07-29T13:18:17;6.53;;;3.50;;
69463;SDS011;56665;41.106;16.688;2023-07-29T13:21:20;4.78;;;3.30;;
69463;SDS011;56665;41.106;16.688;2023-07-29T13:24:24;5.05;;;3.40;;
69463;SDS011;56665;41.106;16.688;2023-07-29T13:27:28;5.97;;;3.35;;
69463;SDS011;56665;41.106;16.688;2023-07-29T13:30:32;4.25;;;2.85;;
69463;SDS011;56665;41.106;16.688;2023-07-29T13:33:37;4.80;;;2.78;;
69463;SDS011;56665;41.106;16.688;2023-07-29T13:36:40;4.47;;;2.63;;
69463;SDS011;56665;41.106;16.688;2023-07-29T13:39:44;4.38;;;2.90;;
69463;SDS011;56665;41.106;16.688;2023-07-29T13:42:48;7.07;;;3.08;;
69463;SDS011;56665;41.106;16.688;2023-07-29T13:45:52;5.15;;;2.80;;
69463;SDS011;56665;41.106;16.688;2023-07-29T13:48:57;6.20;;;2.90;;
69463;SDS011;56665;41.106;16.688;2023-07-29T13:52:00;7.28;;;3.58;;
69463;SDS011;56665;41.106;16.688;2023-07-29T13:55:06;4.15;;;2.70;;
69463;SDS011;56665;41.106;16.688;2023-07-29T13:58:10;5.82;;;2.50;;
69463;SDS011;56665;41.106;16.688;2023-07-29T14:01:13;4.13;;;2.72;;
69463;SDS011;56665;41.106;16.688;2023-07-29T14:04:17;7.00;;;3.40;;
69463;SDS011;56665;41.106;16.688;2023-07-29T14:07:22;5.80;;;3.10;;
69463;SDS011;56665;41.106;16.688;2023-07-29T14:10:26;7.28;;;3.17;;
69463;SDS011;56665;41.106;16.688;2023-07-29T14:13:30;6.30;;;3.40;;
69463;SDS011;56665;41.106;16.688;2023-07-29T14:16:34;4.63;;;3.00;;
69463;SDS011;56665;41.106;16.688;2023-07-29T14:19:38;5.40;;;2.90;;
69463;SDS011;56665;41.106;16.688;2023-07-29T14:22:41;3.78;;;2.55;;
69463;SDS011;56665;41.106;16.688;2023-07-29T14:25:46;5.28;;;2.88;;
69463;SDS011;56665;41.106;16.688;2023-07-29T14:28:50;5.03;;;3.03;;
69463;SDS011;56665;41.106;16.688;2023-07-29T14:31:55;4.53;;;2.92;;
69463;SDS011;56665;41.106;16.688;2023-07-29T14:34:59;4.80;;;2.80;;
69463;SDS011;56665;41.106;16.688;2023-07-29T14:38:07;5.47;;;3.20;;
69463;SDS011;56665;41.106;16.688;2023-07-29T14:41:10;6.43;;;3.20;;
69463;SDS011;56665;41.106;16.688;2023-07-29T14:44:15;5.50;;;2.95;;
69463;SDS011;56665;41.106;16.688;2023-07-29T14:47:20;4.10;;;3.17;;
69463;SDS011;56665;41.106;16.688;2023-07-29T14:50:23;8.18;;;3.53;;
69463;SDS011;56665;41.106;16.688;2023-07-29T14:53:27;6.25;;;3.30;;
69463;SDS011;56665;41.106;16.688;2023-07-29T14:56:31;5.18;;;2.55;;
69463;SDS011;56665;41.106;16.688;2023-07-29T14:59:35;5.55;;;3.05;;
69463;SDS011;56665;41.106;16.688;2023-07-29T15:02:40;7.55;;;2.75;;
69463;SDS011;56665;41.106;16.688;2023-07-29T15:05:44;4.40;;;2.30;;
69463;SDS011;56665;41.106;16.688;2023-07-29T15:08:47;5.25;;;2.40;;
69463;SDS011;56665;41.106;16.688;2023-07-29T15:11:51;5.32;;;2.47;;
69463;SDS011;56665;41.106;16.688;2023-07-29T15:14:55;4.35;;;2.35;;
69463;SDS011;56665;41.106;16.688;2023-07-29T15:17:59;4.65;;;2.63;;
69463;SDS011;56665;41.106;16.688;2023-07-29T15:21:03;5.32;;;2.60;;
69463;SDS011;56665;41.106;16.688;2023-07-29T15:24:08;5.20;;;2.70;;
69463;SDS011;56665;41.106;16.688;2023-07-29T15:27:12;5.70;;;2.70;;
69463;SDS011;56665;41.106;16.688;2023-07-29T15:30:15;4.90;;;2.40;;
69463;SDS011;56665;41.106;16.688;2023-07-29T15:33:19;3.88;;;2.38;;
69463;SDS011;56665;41.106;16.688;2023-07-29T15:36:23;4.40;;;2.50;;
69463;SDS011;56665;41.106;16.688;2023-07-29T15:39:27;5.93;;;2.40;;
69463;SDS011;56665;41.106;16.688;2023-07-29T15:42:31;4.88;;;2.50;;
69463;SDS011;56665;41.106;16.688;2023-07-29T15:45:35;7.18;;;2.78;;
69463;SDS011;56665;41.106;16.688;2023-07-29T15:48:39;4.80;;;2.80;;
69463;SDS011;56665;41.106;16.688;2023-07-29T15:51:44;6.03;;;2.95;;
69463;SDS011;56665;41.106;16.688;2023-07-29T15:54:48;4.43;;;2.80;;
69463;SDS011;56665;41.106;16.688;2023-07-29T15:57:55;5.57;;;2.63;;
69463;SDS011;56665;41.106;16.688;2023-07-29T16:00:59;7.13;;;2.60;;
69463;SDS011;56665;41.106;16.688;2023-07-29T16:04:03;5.10;;;2.65;;
69463;SDS011;56665;41.106;16.688;2023-07-29T16:07:07;5.40;;;2.60;;
69463;SDS011;56665;41.106;16.688;2023-07-29T16:10:13;4.32;;;2.35;;
69463;SDS011;56665;41.106;16.688;2023-07-29T16:13:17;5.40;;;2.58;;
69463;SDS011;56665;41.106;16.688;2023-07-29T16:16:22;7.05;;;2.63;;
69463;SDS011;56665;41.106;16.688;2023-07-29T16:19:26;6.93;;;2.70;;
69463;SDS011;56665;41.106;16.688;2023-07-29T16:22:31;4.35;;;2.70;;
69463;SDS011;56665;41.106;16.688;2023-07-29T16:25:36;5.10;;;3.20;;
69463;SDS011;56665;41.106;16.688;2023-07-29T16:28:41;6.05;;;3.67;;
69463;SDS011;56665;41.106;16.688;2023-07-29T16:31:45;6.40;;;3.40;;
69463;SDS011;56665;41.106;16.688;2023-07-29T16:34:49;7.53;;;4.13;;
69463;SDS011;56665;41.106;16.688;2023-07-29T16:37:53;6.10;;;3.35;;
69463;SDS011;56665;41.106;16.688;2023-07-29T16:40:58;6.35;;;3.40;;
69463;SDS011;56665;41.106;16.688;2023-07-29T16:44:02;10.38;;;3.72;;
69463;SDS011;56665;41.106;16.688;2023-07-29T16:47:06;9.75;;;3.42;;
69463;SDS011;56665;41.106;16.688;2023-07-29T16:50:09;6.50;;;2.88;;
69463;SDS011;56665;41.106;16.688;2023-07-29T16:53:14;6.57;;;3.38;;
69463;SDS011;56665;41.106;16.688;2023-07-29T16:56:18;5.90;;;3.17;;
69463;SDS011;56665;41.106;16.688;2023-07-29T16:59:23;6.85;;;3.20;;
69463;SDS011;56665;41.106;16.688;2023-07-29T17:02:27;6.88;;;2.80;;
69463;SDS011;56665;41.106;16.688;2023-07-29T17:05:31;4.97;;;3.17;;
69463;SDS011;56665;41.106;16.688;2023-07-29T17:08:34;4.97;;;2.92;;
69463;SDS011;56665;41.106;16.688;2023-07-29T17:11:38;3.83;;;2.45;;
69463;SDS011;56665;41.106;16.688;2023-07-29T17:14:42;5.05;;;2.72;;
69463;SDS011;56665;41.106;16.688;2023-07-29T17:17:45;5.93;;;2.70;;
69463;SDS011;56665;41.106;16.688;2023-07-29T17:20:50;4.40;;;2.80;;
69463;SDS011;56665;41.106;16.688;2023-07-29T17:23:54;4.80;;;2.90;;
69463;SDS011;56665;41.106;16.688;2023-07-29T17:27:00;8.15;;;3.60;;
69463;SDS011;56665;41.106;16.688;2023-07-29T17:30:03;10.38;;;3.10;;
69463;SDS011;56665;41.106;16.688;2023-07-29T17:33:07;6.93;;;2.78;;
69463;SDS011;56665;41.106;16.688;2023-07-29T17:36:11;6.78;;;3.00;;
69463;SDS011;56665;41.106;16.688;2023-07-29T17:39:15;6.88;;;3.25;;
69463;SDS011;56665;41.106;16.688;2023-07-29T17:42:19;6.32;;;3.10;;
69463;SDS011;56665;41.106;16.688;2023-07-29T17:45:23;5.25;;;3.00;;
69463;SDS011;56665;41.106;16.688;2023-07-29T17:48:27;4.82;;;3.13;;
69463;SDS011;56665;41.106;16.688;2023-07-29T17:51:31;4.78;;;2.92;;
69463;SDS011;56665;41.106;16.688;2023-07-29T17:54:35;6.00;;;3.25;;
69463;SDS011;56665;41.106;16.688;2023-07-29T17:57:40;5.00;;;3.28;;
69463;SDS011;56665;41.106;16.688;2023-07-29T18:00:44;7.55;;;2.88;;
69463;SDS011;56665;41.106;16.688;2023-07-29T18:03:48;6.40;;;3.03;;
69463;SDS011;56665;41.106;16.688;2023-07-29T18:06:52;6.65;;;3.03;;
69463;SDS011;56665;41.106;16.688;2023-07-29T18:09:56;6.43;;;3.30;;
69463;SDS011;56665;41.106;16.688;2023-07-29T18:12:59;8.80;;;4.25;;
69463;SDS011;56665;41.106;16.688;2023-07-29T18:16:04;6.35;;;3.75;;
69463;SDS011;56665;41.106;16.688;2023-07-29T18:19:08;6.07;;;4.25;;
69463;SDS011;56665;41.106;16.688;2023-07-29T18:22:12;5.40;;;3.80;;
69463;SDS011;56665;41.106;16.688;2023-07-29T18:25:16;4.68;;;3.17;;
69463;SDS011;56665;41.106;16.688;2023-07-29T18:28:19;8.10;;;3.67;;
69463;SDS011;56665;41.106;16.688;2023-07-29T18:31:23;7.75;;;4.03;;